sensor_id;sensor_type;location;lat;lon;timestamp;temperature;humidity
21115;DHT22;10715;48.546;9.896;2023-02-10T00:01:16;-7.60;99.90
21115;DHT22;10715;48.546;9.896;2023-02-10T00:03:43;-7.60;99.90
21115;DHT22;10715;48.546;9.896;2023-02-10T00:06:10;-7.50;99.90
21115;DHT22;10715;48.546;9.896;2023-02-10T00:08:36;-7.50;99.90
21115;DHT22;10715;48.546;9.896;2023-02-10T00:11:04;-7.50;99.90
21115;DHT22;10715;48.546;9.896;2023-02-10T00:13:31;-7.60;99.90
21115;DHT22;10715;48.546;9.896;2023-02-10T00:16:02;-7.60;99.90
21115;DHT22;10715;48.546;9.896;2023-02-10T00:18:28;-7.60;99.90
21115;DHT22;10715;48.546;9.896;2023-02-10T00:20:54;-7.70;99.90
21115;DHT22;10715;48.546;9.896;2023-02-10T00:23:20;-7.70;99.90
21115;DHT22;10715;48.546;9.896;2023-02-10T00:25:46;-7.70;99.90
21115;DHT22;10715;48.546;9.896;2023-02-10T00:28:12;-7.80;99.90
21115;DHT22;10715;48.546;9.896;2023-02-10T00:30:38;-7.80;99.90
21115;DHT22;10715;48.546;9.896;2023-02-10T00:33:04;-7.90;99.90
21115;DHT22;10715;48.546;9.896;2023-02-10T00:35:30;-7.90;99.90
21115;DHT22;10715;48.546;9.896;2023-02-10T00:37:56;-7.90;99.90
21115;DHT22;10715;48.546;9.896;2023-02-10T00:40:22;-8.00;99.90
21115;DHT22;10715;48.546;9.896;2023-02-10T00:42:48;-8.00;99.90
21115;DHT22;10715;48.546;9.896;2023-02-10T00:45:14;-7.90;99.90
21115;DHT22;10715;48.546;9.896;2023-02-10T00:47:40;-8.00;99.90
21115;DHT22;10715;48.546;9.896;2023-02-10T00:50:06;-8.00;99.90
21115;DHT22;10715;48.546;9.896;2023-02-10T00:52:32;-8.10;99.90
21115;DHT22;10715;48.546;9.896;2023-02-10T00:54:57;-8.10;99.90
21115;DHT22;10715;48.546;9.896;2023-02-10T00:57:23;-8.10;99.90
21115;DHT22;10715;48.546;9.896;2023-02-10T00:59:49;-8.10;99.90
21115;DHT22;10715;48.546;9.896;2023-02-10T01:02:15;-8.20;99.90
21115;DHT22;10715;48.546;9.896;2023-02-10T01:04:41;-8.20;99.90
21115;DHT22;10715;48.546;9.896;2023-02-10T01:07:06;-8.20;99.90
21115;DHT22;10715;48.546;9.896;2023-02-10T01:09:32;-8.20;99.90
21115;DHT22;10715;48.546;9.896;2023-02-10T01:11:58;-8.20;99.90
21115;DHT22;10715;48.546;9.896;2023-02-10T01:14:24;-8.30;99.90
21115;DHT22;10715;48.546;9.896;2023-02-10T01:16:50;-8.30;99.90
21115;DHT22;10715;48.546;9.896;2023-02-10T01:19:15;-8.30;99.90
21115;DHT22;10715;48.546;9.896;2023-02-10T01:21:41;-8.40;99.90
21115;DHT22;10715;48.546;9.896;2023-02-10T01:24:07;-8.40;99.90
21115;DHT22;10715;48.546;9.896;2023-02-10T01:26:33;-8.40;99.90
21115;DHT22;10715;48.546;9.896;2023-02-10T01:28:59;-8.40;99.90
21115;DHT22;10715;48.546;9.896;2023-02-10T01:31:25;-8.40;99.90
21115;DHT22;10715;48.546;9.896;2023-02-10T01:33:53;-8.40;99.90
21115;DHT22;10715;48.546;9.896;2023-02-10T01:36:21;-8.40;99.90
21115;DHT22;10715;48.546;9.896;2023-02-10T01:38:47;-8.40;99.90
21115;DHT22;10715;48.546;9.896;2023-02-10T01:41:15;-8.50;99.90
21115;DHT22;10715;48.546;9.896;2023-02-10T01:46:34;-8.50;99.90
21115;DHT22;10715;48.546;9.896;2023-02-10T01:49:11;-8.60;99.90
21115;DHT22;10715;48.546;9.896;2023-02-10T01:51:46;-8.60;99.90
21115;DHT22;10715;48.546;9.896;2023-02-10T01:54:18;-8.60;99.90
21115;DHT22;10715;48.546;9.896;2023-02-10T01:56:44;-8.60;99.90
21115;DHT22;10715;48.546;9.896;2023-02-10T01:59:12;-8.60;99.90
21115;DHT22;10715;48.546;9.896;2023-02-10T02:01:38;-8.70;99.90
21115;DHT22;10715;48.546;9.896;2023-02-10T02:04:04;-8.70;99.90
21115;DHT22;10715;48.546;9.896;2023-02-10T02:06:30;-8.80;99.90
21115;DHT22;10715;48.546;9.896;2023-02-10T02:08:56;-8.80;99.90
21115;DHT22;10715;48.546;9.896;2023-02-10T02:14:29;-8.80;99.90
21115;DHT22;10715;48.546;9.896;2023-02-10T02:19:55;-8.70;99.90
21115;DHT22;10715;48.546;9.896;2023-02-10T02:33:37;-8.50;99.90
21115;DHT22;10715;48.546;9.896;2023-02-10T02:36:30;-8.50;99.90
21115;DHT22;10715;48.546;9.896;2023-02-10T02:39:00;-8.50;99.90
21115;DHT22;10715;48.546;9.896;2023-02-10T02:41:28;-8.50;99.90
21115;DHT22;10715;48.546;9.896;2023-02-10T02:43:55;-8.50;99.90
21115;DHT22;10715;48.546;9.896;2023-02-10T02:46:33;-8.60;99.90
21115;DHT22;10715;48.546;9.896;2023-02-10T02:51:48;-8.60;99.90
21115;DHT22;10715;48.546;9.896;2023-02-10T02:57:47;-8.60;99.90
21115;DHT22;10715;48.546;9.896;2023-02-10T03:00:19;-8.60;99.90
21115;DHT22;10715;48.546;9.896;2023-02-10T03:02:46;-8.60;99.90
21115;DHT22;10715;48.546;9.896;2023-02-10T03:05:20;-8.60;99.90
21115;DHT22;10715;48.546;9.896;2023-02-10T03:07:49;-8.70;99.90
21115;DHT22;10715;48.546;9.896;2023-02-10T03:10:16;-8.70;99.90
21115;DHT22;10715;48.546;9.896;2023-02-10T03:12:42;-8.80;99.90
21115;DHT22;10715;48.546;9.896;2023-02-10T03:15:08;-8.90;99.90
21115;DHT22;10715;48.546;9.896;2023-02-10T03:17:34;-9.00;99.90
21115;DHT22;10715;48.546;9.896;2023-02-10T03:19:59;-9.00;99.90
21115;DHT22;10715;48.546;9.896;2023-02-10T03:22:25;-9.00;99.90
21115;DHT22;10715;48.546;9.896;2023-02-10T03:24:51;-9.00;99.90
21115;DHT22;10715;48.546;9.896;2023-02-10T03:27:16;-9.10;99.90
21115;DHT22;10715;48.546;9.896;2023-02-10T03:29:42;-9.20;99.90
21115;DHT22;10715;48.546;9.896;2023-02-10T03:32:08;-9.20;99.90
21115;DHT22;10715;48.546;9.896;2023-02-10T03:34:34;-9.30;99.90
21115;DHT22;10715;48.546;9.896;2023-02-10T03:36:59;-9.40;99.90
21115;DHT22;10715;48.546;9.896;2023-02-10T03:39:25;-9.40;99.90
21115;DHT22;10715;48.546;9.896;2023-02-10T03:41:51;-9.30;99.90
21115;DHT22;10715;48.546;9.896;2023-02-10T03:44:18;-9.30;99.90
21115;DHT22;10715;48.546;9.896;2023-02-10T03:46:44;-9.30;99.90
21115;DHT22;10715;48.546;9.896;2023-02-10T03:49:10;-9.30;99.90
21115;DHT22;10715;48.546;9.896;2023-02-10T03:51:35;-9.30;99.90
21115;DHT22;10715;48.546;9.896;2023-02-10T03:54:01;-9.30;99.90
21115;DHT22;10715;48.546;9.896;2023-02-10T03:56:27;-9.30;99.90
21115;DHT22;10715;48.546;9.896;2023-02-10T03:58:52;-9.30;99.90
21115;DHT22;10715;48.546;9.896;2023-02-10T04:01:18;-9.20;99.90
21115;DHT22;10715;48.546;9.896;2023-02-10T04:03:45;-9.20;99.90
21115;DHT22;10715;48.546;9.896;2023-02-10T04:06:11;-9.30;99.90
21115;DHT22;10715;48.546;9.896;2023-02-10T04:08:37;-9.40;99.90
21115;DHT22;10715;48.546;9.896;2023-02-10T04:11:04;-9.40;99.90
21115;DHT22;10715;48.546;9.896;2023-02-10T04:13:30;-9.40;99.90
21115;DHT22;10715;48.546;9.896;2023-02-10T04:16:22;-9.30;99.90
21115;DHT22;10715;48.546;9.896;2023-02-10T04:18:53;-9.30;99.90
21115;DHT22;10715;48.546;9.896;2023-02-10T04:21:18;-9.30;99.90
21115;DHT22;10715;48.546;9.896;2023-02-10T04:23:44;-9.40;99.90
21115;DHT22;10715;48.546;9.896;2023-02-10T04:26:10;-9.50;99.90
21115;DHT22;10715;48.546;9.896;2023-02-10T04:28:36;-9.50;99.90
21115;DHT22;10715;48.546;9.896;2023-02-10T04:31:01;-9.60;99.90
21115;DHT22;10715;48.546;9.896;2023-02-10T04:33:28;-9.70;99.90
21115;DHT22;10715;48.546;9.896;2023-02-10T04:35:54;-9.70;99.90
21115;DHT22;10715;48.546;9.896;2023-02-10T04:38:21;-9.80;99.90
21115;DHT22;10715;48.546;9.896;2023-02-10T04:40:47;-9.70;99.90
21115;DHT22;10715;48.546;9.896;2023-02-10T04:43:13;-9.80;99.90
21115;DHT22;10715;48.546;9.896;2023-02-10T04:45:39;-9.80;99.90
21115;DHT22;10715;48.546;9.896;2023-02-10T04:48:05;-9.80;99.90
21115;DHT22;10715;48.546;9.896;2023-02-10T04:50:31;-9.80;99.90
21115;DHT22;10715;48.546;9.896;2023-02-10T04:52:57;-9.70;99.90
21115;DHT22;10715;48.546;9.896;2023-02-10T04:55:23;-9.70;99.90
21115;DHT22;10715;48.546;9.896;2023-02-10T04:57:49;-9.60;99.90
21115;DHT22;10715;48.546;9.896;2023-02-10T05:00:14;-9.60;99.90
21115;DHT22;10715;48.546;9.896;2023-02-10T05:02:41;-9.60;99.90
21115;DHT22;10715;48.546;9.896;2023-02-10T05:05:10;-9.60;99.90
21115;DHT22;10715;48.546;9.896;2023-02-10T05:07:35;-9.70;99.90
21115;DHT22;10715;48.546;9.896;2023-02-10T05:10:01;-9.70;99.90
21115;DHT22;10715;48.546;9.896;2023-02-10T05:12:27;-9.70;99.90
21115;DHT22;10715;48.546;9.896;2023-02-10T05:14:53;-9.70;99.90
21115;DHT22;10715;48.546;9.896;2023-02-10T05:17:18;-9.70;99.90
21115;DHT22;10715;48.546;9.896;2023-02-10T05:19:44;-9.70;99.90
21115;DHT22;10715;48.546;9.896;2023-02-10T05:22:10;-9.80;99.90
21115;DHT22;10715;48.546;9.896;2023-02-10T05:24:35;-9.80;99.90
21115;DHT22;10715;48.546;9.896;2023-02-10T05:27:01;-9.80;99.90
21115;DHT22;10715;48.546;9.896;2023-02-10T05:29:27;-9.90;99.90
21115;DHT22;10715;48.546;9.896;2023-02-10T05:31:53;-9.90;99.90
21115;DHT22;10715;48.546;9.896;2023-02-10T05:34:18;-9.90;99.90
21115;DHT22;10715;48.546;9.896;2023-02-10T05:36:44;-9.90;99.90
21115;DHT22;10715;48.546;9.896;2023-02-10T05:39:10;-9.90;99.90
21115;DHT22;10715;48.546;9.896;2023-02-10T05:41:49;-9.80;99.90
21115;DHT22;10715;48.546;9.896;2023-02-10T05:44:15;-9.80;99.90
21115;DHT22;10715;48.546;9.896;2023-02-10T05:46:41;-9.90;99.90
21115;DHT22;10715;48.546;9.896;2023-02-10T05:49:06;-9.90;99.90
21115;DHT22;10715;48.546;9.896;2023-02-10T05:51:32;-9.90;99.90
21115;DHT22;10715;48.546;9.896;2023-02-10T05:53:58;-10.00;99.90
21115;DHT22;10715;48.546;9.896;2023-02-10T05:56:24;-10.00;99.90
21115;DHT22;10715;48.546;9.896;2023-02-10T05:58:49;-10.00;99.90
21115;DHT22;10715;48.546;9.896;2023-02-10T06:01:15;-10.10;99.90
21115;DHT22;10715;48.546;9.896;2023-02-10T06:03:41;-10.10;99.90
21115;DHT22;10715;48.546;9.896;2023-02-10T06:06:06;-10.10;99.90
21115;DHT22;10715;48.546;9.896;2023-02-10T06:08:32;-10.10;99.90
21115;DHT22;10715;48.546;9.896;2023-02-10T06:10:58;-10.10;99.90
21115;DHT22;10715;48.546;9.896;2023-02-10T06:13:23;-10.00;99.90
21115;DHT22;10715;48.546;9.896;2023-02-10T06:15:49;-10.00;99.90
21115;DHT22;10715;48.546;9.896;2023-02-10T06:18:15;-9.90;99.90
21115;DHT22;10715;48.546;9.896;2023-02-10T06:20:41;-9.80;99.90
21115;DHT22;10715;48.546;9.896;2023-02-10T06:23:06;-9.80;99.90
21115;DHT22;10715;48.546;9.896;2023-02-10T06:25:32;-9.80;99.90
21115;DHT22;10715;48.546;9.896;2023-02-10T06:28:01;-9.70;99.90
21115;DHT22;10715;48.546;9.896;2023-02-10T06:30:26;-9.70;99.90
21115;DHT22;10715;48.546;9.896;2023-02-10T06:32:52;-9.70;99.90
21115;DHT22;10715;48.546;9.896;2023-02-10T06:35:18;-9.70;99.90
21115;DHT22;10715;48.546;9.896;2023-02-10T06:37:44;-9.70;99.90
21115;DHT22;10715;48.546;9.896;2023-02-10T06:40:10;-9.70;99.90
21115;DHT22;10715;48.546;9.896;2023-02-10T06:42:36;-9.90;99.90
21115;DHT22;10715;48.546;9.896;2023-02-10T06:45:01;-9.90;99.90
21115;DHT22;10715;48.546;9.896;2023-02-10T06:47:27;-10.00;99.90
21115;DHT22;10715;48.546;9.896;2023-02-10T06:49:53;-10.00;99.90
21115;DHT22;10715;48.546;9.896;2023-02-10T06:52:18;-10.00;99.90
21115;DHT22;10715;48.546;9.896;2023-02-10T06:54:44;-10.10;99.90
21115;DHT22;10715;48.546;9.896;2023-02-10T06:57:10;-10.10;99.90
21115;DHT22;10715;48.546;9.896;2023-02-10T06:59:36;-10.10;99.90
21115;DHT22;10715;48.546;9.896;2023-02-10T07:02:02;-10.10;99.90
21115;DHT22;10715;48.546;9.896;2023-02-10T07:04:28;-10.10;99.90
21115;DHT22;10715;48.546;9.896;2023-02-10T07:06:55;-10.00;99.90
21115;DHT22;10715;48.546;9.896;2023-02-10T07:09:21;-10.00;99.90
21115;DHT22;10715;48.546;9.896;2023-02-10T07:11:47;-10.00;99.90
21115;DHT22;10715;48.546;9.896;2023-02-10T07:14:13;-10.00;99.90
21115;DHT22;10715;48.546;9.896;2023-02-10T07:16:38;-10.00;99.90
21115;DHT22;10715;48.546;9.896;2023-02-10T07:19:04;-9.90;99.90
21115;DHT22;10715;48.546;9.896;2023-02-10T07:21:30;-9.90;99.90
21115;DHT22;10715;48.546;9.896;2023-02-10T07:23:56;-9.80;99.90
21115;DHT22;10715;48.546;9.896;2023-02-10T07:26:22;-9.80;99.90
21115;DHT22;10715;48.546;9.896;2023-02-10T07:28:47;-9.80;99.90
21115;DHT22;10715;48.546;9.896;2023-02-10T07:31:13;-9.70;99.90
21115;DHT22;10715;48.546;9.896;2023-02-10T07:33:39;-9.70;99.90
21115;DHT22;10715;48.546;9.896;2023-02-10T07:36:06;-9.70;99.90
21115;DHT22;10715;48.546;9.896;2023-02-10T07:38:33;-9.60;99.90
21115;DHT22;10715;48.546;9.896;2023-02-10T07:40:59;-9.60;99.90
21115;DHT22;10715;48.546;9.896;2023-02-10T07:43:25;-9.50;99.90
21115;DHT22;10715;48.546;9.896;2023-02-10T07:45:50;-9.50;99.90
21115;DHT22;10715;48.546;9.896;2023-02-10T07:48:17;-9.50;99.90
21115;DHT22;10715;48.546;9.896;2023-02-10T07:50:43;-9.50;99.90
21115;DHT22;10715;48.546;9.896;2023-02-10T07:53:09;-9.50;99.90
21115;DHT22;10715;48.546;9.896;2023-02-10T07:55:38;-9.50;99.90
21115;DHT22;10715;48.546;9.896;2023-02-10T07:58:05;-9.50;99.90
21115;DHT22;10715;48.546;9.896;2023-02-10T08:00:31;-9.40;99.90
21115;DHT22;10715;48.546;9.896;2023-02-10T08:02:57;-9.40;99.90
21115;DHT22;10715;48.546;9.896;2023-02-10T08:05:23;-9.30;99.90
21115;DHT22;10715;48.546;9.896;2023-02-10T08:07:48;-9.30;99.90
21115;DHT22;10715;48.546;9.896;2023-02-10T08:10:15;-9.20;99.90
21115;DHT22;10715;48.546;9.896;2023-02-10T08:12:40;-9.10;99.90
21115;DHT22;10715;48.546;9.896;2023-02-10T08:15:07;-9.00;99.90
21115;DHT22;10715;48.546;9.896;2023-02-10T08:17:33;-8.90;99.90
21115;DHT22;10715;48.546;9.896;2023-02-10T08:19:59;-8.80;99.90
21115;DHT22;10715;48.546;9.896;2023-02-10T08:22:25;-8.80;99.90
21115;DHT22;10715;48.546;9.896;2023-02-10T08:24:51;-8.70;99.90
21115;DHT22;10715;48.546;9.896;2023-02-10T08:27:17;-8.60;99.90
21115;DHT22;10715;48.546;9.896;2023-02-10T08:29:42;-8.50;99.90
21115;DHT22;10715;48.546;9.896;2023-02-10T08:32:08;-8.50;99.90
21115;DHT22;10715;48.546;9.896;2023-02-10T08:34:34;-8.40;99.90
21115;DHT22;10715;48.546;9.896;2023-02-10T08:37:02;-8.40;99.90
21115;DHT22;10715;48.546;9.896;2023-02-10T08:39:28;-8.30;99.90
21115;DHT22;10715;48.546;9.896;2023-02-10T08:41:54;-8.30;99.90
21115;DHT22;10715;48.546;9.896;2023-02-10T08:44:20;-8.20;99.90
21115;DHT22;10715;48.546;9.896;2023-02-10T08:46:47;-8.10;99.90
21115;DHT22;10715;48.546;9.896;2023-02-10T08:49:13;-8.00;99.90
21115;DHT22;10715;48.546;9.896;2023-02-10T08:51:38;-7.90;99.90
21115;DHT22;10715;48.546;9.896;2023-02-10T08:54:05;-7.80;99.90
21115;DHT22;10715;48.546;9.896;2023-02-10T08:56:31;-7.70;99.90
21115;DHT22;10715;48.546;9.896;2023-02-10T08:58:57;-7.60;99.90
21115;DHT22;10715;48.546;9.896;2023-02-10T09:01:24;-7.50;99.90
21115;DHT22;10715;48.546;9.896;2023-02-10T09:03:54;-7.40;99.90
21115;DHT22;10715;48.546;9.896;2023-02-10T09:06:30;-7.30;99.90
21115;DHT22;10715;48.546;9.896;2023-02-10T09:08:56;-7.20;99.90
21115;DHT22;10715;48.546;9.896;2023-02-10T09:11:23;-7.10;99.90
21115;DHT22;10715;48.546;9.896;2023-02-10T09:13:50;-7.00;99.90
21115;DHT22;10715;48.546;9.896;2023-02-10T09:16:15;-6.90;99.90
21115;DHT22;10715;48.546;9.896;2023-02-10T09:18:41;-6.80;99.90
21115;DHT22;10715;48.546;9.896;2023-02-10T09:21:08;-6.70;99.90
21115;DHT22;10715;48.546;9.896;2023-02-10T09:23:33;-6.60;99.90
21115;DHT22;10715;48.546;9.896;2023-02-10T09:26:00;-6.50;99.90
21115;DHT22;10715;48.546;9.896;2023-02-10T09:28:27;-6.30;99.90
21115;DHT22;10715;48.546;9.896;2023-02-10T09:30:53;-6.20;99.90
21115;DHT22;10715;48.546;9.896;2023-02-10T09:33:19;-6.10;99.90
21115;DHT22;10715;48.546;9.896;2023-02-10T09:35:45;-5.90;99.90
21115;DHT22;10715;48.546;9.896;2023-02-10T09:38:12;-5.70;99.90
21115;DHT22;10715;48.546;9.896;2023-02-10T09:46:16;-5.30;99.90
21115;DHT22;10715;48.546;9.896;2023-02-10T09:53:49;-4.80;99.90
21115;DHT22;10715;48.546;9.896;2023-02-10T09:56:19;-4.70;99.90
21115;DHT22;10715;48.546;9.896;2023-02-10T09:58:49;-4.50;99.90
21115;DHT22;10715;48.546;9.896;2023-02-10T10:06:18;-3.90;99.90
21115;DHT22;10715;48.546;9.896;2023-02-10T10:11:25;-3.60;99.90
21115;DHT22;10715;48.546;9.896;2023-02-10T10:13:52;-3.30;99.90
21115;DHT22;10715;48.546;9.896;2023-02-10T10:30:37;-2.20;99.90
21115;DHT22;10715;48.546;9.896;2023-02-10T10:35:42;-1.90;99.90
21115;DHT22;10715;48.546;9.896;2023-02-10T10:38:24;-1.80;99.90
21115;DHT22;10715;48.546;9.896;2023-02-10T10:40:56;-1.70;99.90
21115;DHT22;10715;48.546;9.896;2023-02-10T10:43:30;-1.60;99.90
21115;DHT22;10715;48.546;9.896;2023-02-10T10:46:10;-1.50;99.90
21115;DHT22;10715;48.546;9.896;2023-02-10T10:48:40;-1.50;99.90
21115;DHT22;10715;48.546;9.896;2023-02-10T10:51:06;-1.40;99.90
21115;DHT22;10715;48.546;9.896;2023-02-10T10:56:05;-1.20;99.90
21115;DHT22;10715;48.546;9.896;2023-02-10T10:58:37;-1.20;99.90
21115;DHT22;10715;48.546;9.896;2023-02-10T11:01:04;-1.10;99.90
21115;DHT22;10715;48.546;9.896;2023-02-10T11:03:31;-1.00;99.90
21115;DHT22;10715;48.546;9.896;2023-02-10T11:06:06;-1.00;99.90
21115;DHT22;10715;48.546;9.896;2023-02-10T11:08:45;-0.90;99.90
21115;DHT22;10715;48.546;9.896;2023-02-10T11:11:14;-0.80;99.90
21115;DHT22;10715;48.546;9.896;2023-02-10T11:13:49;-0.70;99.90
21115;DHT22;10715;48.546;9.896;2023-02-10T11:16:16;-0.70;99.90
21115;DHT22;10715;48.546;9.896;2023-02-10T11:18:55;-0.60;99.90
21115;DHT22;10715;48.546;9.896;2023-02-10T11:21:36;-0.60;99.90
21115;DHT22;10715;48.546;9.896;2023-02-10T11:24:02;-0.50;99.90
21115;DHT22;10715;48.546;9.896;2023-02-10T11:26:28;-0.40;99.90
21115;DHT22;10715;48.546;9.896;2023-02-10T11:28:55;-0.30;99.90
21115;DHT22;10715;48.546;9.896;2023-02-10T11:34:00;-0.20;99.90
21115;DHT22;10715;48.546;9.896;2023-02-10T11:36:36;-0.10;99.90
21115;DHT22;10715;48.546;9.896;2023-02-10T11:39:14;-0.10;99.90
21115;DHT22;10715;48.546;9.896;2023-02-10T11:41:41;0.00;99.90
21115;DHT22;10715;48.546;9.896;2023-02-10T11:44:24;0.00;99.90
21115;DHT22;10715;48.546;9.896;2023-02-10T11:47:17;0.10;99.90
21115;DHT22;10715;48.546;9.896;2023-02-10T11:49:45;0.10;99.90
21115;DHT22;10715;48.546;9.896;2023-02-10T11:52:11;0.20;99.90
21115;DHT22;10715;48.546;9.896;2023-02-10T11:54:38;0.20;99.90
21115;DHT22;10715;48.546;9.896;2023-02-10T12:00:50;0.30;99.90
21115;DHT22;10715;48.546;9.896;2023-02-10T12:06:35;0.40;99.90
21115;DHT22;10715;48.546;9.896;2023-02-10T12:11:48;0.70;99.90
21115;DHT22;10715;48.546;9.896;2023-02-10T12:14:45;0.80;99.90
21115;DHT22;10715;48.546;9.896;2023-02-10T12:20:21;1.00;99.90
21115;DHT22;10715;48.546;9.896;2023-02-10T12:31:25;1.30;99.90
21115;DHT22;10715;48.546;9.896;2023-02-10T12:34:16;1.40;99.90
21115;DHT22;10715;48.546;9.896;2023-02-10T12:37:03;1.40;99.90
21115;DHT22;10715;48.546;9.896;2023-02-10T12:48:41;1.70;99.90
21115;DHT22;10715;48.546;9.896;2023-02-10T12:54:07;1.70;99.90
21115;DHT22;10715;48.546;9.896;2023-02-10T12:56:43;1.80;99.90
21115;DHT22;10715;48.546;9.896;2023-02-10T12:59:17;1.80;99.90
21115;DHT22;10715;48.546;9.896;2023-02-10T13:01:55;1.80;99.90
21115;DHT22;10715;48.546;9.896;2023-02-10T13:04:22;1.80;99.90
21115;DHT22;10715;48.546;9.896;2023-02-10T13:07:04;1.80;99.90
21115;DHT22;10715;48.546;9.896;2023-02-10T13:12:39;1.80;99.90
21115;DHT22;10715;48.546;9.896;2023-02-10T13:15:16;1.90;99.90
21115;DHT22;10715;48.546;9.896;2023-02-10T13:17:46;1.90;99.90
21115;DHT22;10715;48.546;9.896;2023-02-10T13:20:34;2.00;99.90
21115;DHT22;10715;48.546;9.896;2023-02-10T13:26:38;2.00;99.90
21115;DHT22;10715;48.546;9.896;2023-02-10T13:34:54;1.90;99.90
21115;DHT22;10715;48.546;9.896;2023-02-10T13:37:33;1.90;99.90
21115;DHT22;10715;48.546;9.896;2023-02-10T13:40:05;1.90;99.90
21115;DHT22;10715;48.546;9.896;2023-02-10T13:42:46;1.80;99.90
21115;DHT22;10715;48.546;9.896;2023-02-10T13:45:14;1.90;99.90
21115;DHT22;10715;48.546;9.896;2023-02-10T13:52:58;1.90;99.90
21115;DHT22;10715;48.546;9.896;2023-02-10T13:55:36;1.90;99.90
21115;DHT22;10715;48.546;9.896;2023-02-10T14:00:50;1.90;99.90
21115;DHT22;10715;48.546;9.896;2023-02-10T14:06:03;1.90;99.90
21115;DHT22;10715;48.546;9.896;2023-02-10T14:08:44;1.90;99.90
21115;DHT22;10715;48.546;9.896;2023-02-10T14:13:56;1.90;99.90
21115;DHT22;10715;48.546;9.896;2023-02-10T14:16:38;1.90;99.90
21115;DHT22;10715;48.546;9.896;2023-02-10T14:19:20;1.90;99.90
21115;DHT22;10715;48.546;9.896;2023-02-10T14:21:47;1.90;99.90
21115;DHT22;10715;48.546;9.896;2023-02-10T14:24:22;1.90;99.90
21115;DHT22;10715;48.546;9.896;2023-02-10T14:26:50;1.90;99.90
21115;DHT22;10715;48.546;9.896;2023-02-10T14:29:18;2.00;99.90
21115;DHT22;10715;48.546;9.896;2023-02-10T14:32:04;1.90;99.90
21115;DHT22;10715;48.546;9.896;2023-02-10T14:34:34;1.90;99.90
21115;DHT22;10715;48.546;9.896;2023-02-10T14:37:03;1.90;99.90
21115;DHT22;10715;48.546;9.896;2023-02-10T14:39:37;1.90;99.90
21115;DHT22;10715;48.546;9.896;2023-02-10T14:42:04;1.90;99.90
21115;DHT22;10715;48.546;9.896;2023-02-10T14:44:49;1.90;99.90
21115;DHT22;10715;48.546;9.896;2023-02-10T14:47:21;1.90;99.90
21115;DHT22;10715;48.546;9.896;2023-02-10T14:49:54;1.90;99.90
21115;DHT22;10715;48.546;9.896;2023-02-10T14:52:28;1.90;99.90
21115;DHT22;10715;48.546;9.896;2023-02-10T14:54:54;1.90;99.90
21115;DHT22;10715;48.546;9.896;2023-02-10T14:57:21;1.90;99.90
21115;DHT22;10715;48.546;9.896;2023-02-10T14:59:57;1.90;99.90
21115;DHT22;10715;48.546;9.896;2023-02-10T15:02:28;1.90;99.90
21115;DHT22;10715;48.546;9.896;2023-02-10T15:04:56;1.90;99.90
21115;DHT22;10715;48.546;9.896;2023-02-10T15:09:54;1.90;99.90
21115;DHT22;10715;48.546;9.896;2023-02-10T15:12:22;1.80;99.90
21115;DHT22;10715;48.546;9.896;2023-02-10T15:15:26;1.80;99.90
21115;DHT22;10715;48.546;9.896;2023-02-10T15:17:57;1.80;99.90
21115;DHT22;10715;48.546;9.896;2023-02-10T15:20:28;1.80;99.90
21115;DHT22;10715;48.546;9.896;2023-02-10T15:27:48;1.70;99.90
21115;DHT22;10715;48.546;9.896;2023-02-10T15:30:22;1.70;99.90
21115;DHT22;10715;48.546;9.896;2023-02-10T15:33:17;1.70;99.90
21115;DHT22;10715;48.546;9.896;2023-02-10T15:38:44;1.60;99.90
21115;DHT22;10715;48.546;9.896;2023-02-10T15:41:43;1.60;99.90
21115;DHT22;10715;48.546;9.896;2023-02-10T15:46:52;1.50;99.90
21115;DHT22;10715;48.546;9.896;2023-02-10T15:49:19;1.50;99.90
21115;DHT22;10715;48.546;9.896;2023-02-10T15:51:51;1.50;99.90
21115;DHT22;10715;48.546;9.896;2023-02-10T15:54:24;1.40;99.90
21115;DHT22;10715;48.546;9.896;2023-02-10T15:57:04;1.40;99.90
21115;DHT22;10715;48.546;9.896;2023-02-10T15:59:30;1.30;99.90
21115;DHT22;10715;48.546;9.896;2023-02-10T16:02:07;1.20;99.90
21115;DHT22;10715;48.546;9.896;2023-02-10T16:04:35;1.20;99.90
21115;DHT22;10715;48.546;9.896;2023-02-10T16:07:02;1.10;99.90
21115;DHT22;10715;48.546;9.896;2023-02-10T16:09:29;1.00;99.90
21115;DHT22;10715;48.546;9.896;2023-02-10T16:11:56;1.00;99.90
21115;DHT22;10715;48.546;9.896;2023-02-10T16:14:22;0.90;99.90
21115;DHT22;10715;48.546;9.896;2023-02-10T16:16:55;0.80;99.90
21115;DHT22;10715;48.546;9.896;2023-02-10T16:19:23;0.80;99.90
21115;DHT22;10715;48.546;9.896;2023-02-10T16:21:51;0.70;99.90
21115;DHT22;10715;48.546;9.896;2023-02-10T16:24:22;0.60;99.90
21115;DHT22;10715;48.546;9.896;2023-02-10T16:26:48;0.50;99.90
21115;DHT22;10715;48.546;9.896;2023-02-10T16:29:22;0.50;99.90
21115;DHT22;10715;48.546;9.896;2023-02-10T16:31:49;0.40;99.90
21115;DHT22;10715;48.546;9.896;2023-02-10T16:34:15;0.30;99.90
21115;DHT22;10715;48.546;9.896;2023-02-10T16:36:47;0.20;99.90
21115;DHT22;10715;48.546;9.896;2023-02-10T16:39:20;0.10;99.90
21115;DHT22;10715;48.546;9.896;2023-02-10T16:41:47;0.00;99.90
21115;DHT22;10715;48.546;9.896;2023-02-10T16:44:20;-0.10;99.90
21115;DHT22;10715;48.546;9.896;2023-02-10T16:46:52;-0.10;99.90
21115;DHT22;10715;48.546;9.896;2023-02-10T16:49:19;-0.20;99.90
21115;DHT22;10715;48.546;9.896;2023-02-10T16:51:45;-0.30;99.90
21115;DHT22;10715;48.546;9.896;2023-02-10T16:54:11;-0.30;99.90
21115;DHT22;10715;48.546;9.896;2023-02-10T16:56:38;-0.40;99.90
21115;DHT22;10715;48.546;9.896;2023-02-10T16:59:05;-0.40;99.90
21115;DHT22;10715;48.546;9.896;2023-02-10T17:01:37;-0.40;99.90
21115;DHT22;10715;48.546;9.896;2023-02-10T17:04:06;-0.50;99.90
21115;DHT22;10715;48.546;9.896;2023-02-10T17:06:42;-0.50;99.90
21115;DHT22;10715;48.546;9.896;2023-02-10T17:09:17;-0.60;99.90
21115;DHT22;10715;48.546;9.896;2023-02-10T17:11:43;-0.60;99.90
21115;DHT22;10715;48.546;9.896;2023-02-10T17:14:12;-0.60;99.90
21115;DHT22;10715;48.546;9.896;2023-02-10T17:16:41;-0.70;99.90
21115;DHT22;10715;48.546;9.896;2023-02-10T17:19:08;-0.70;99.90
21115;DHT22;10715;48.546;9.896;2023-02-10T17:21:35;-0.80;99.90
21115;DHT22;10715;48.546;9.896;2023-02-10T17:24:07;-0.80;99.90
21115;DHT22;10715;48.546;9.896;2023-02-10T17:26:33;-0.90;99.90
21115;DHT22;10715;48.546;9.896;2023-02-10T17:28:58;-0.90;99.90
21115;DHT22;10715;48.546;9.896;2023-02-10T17:31:24;-0.90;99.90
21115;DHT22;10715;48.546;9.896;2023-02-10T17:33:51;-1.00;99.90
21115;DHT22;10715;48.546;9.896;2023-02-10T17:36:23;-1.00;99.90
21115;DHT22;10715;48.546;9.896;2023-02-10T17:38:49;-1.10;99.90
21115;DHT22;10715;48.546;9.896;2023-02-10T17:41:21;-1.10;99.90
21115;DHT22;10715;48.546;9.896;2023-02-10T17:43:47;-1.20;99.90
21115;DHT22;10715;48.546;9.896;2023-02-10T17:46:14;-1.20;99.90
21115;DHT22;10715;48.546;9.896;2023-02-10T17:48:40;-1.20;99.90
21115;DHT22;10715;48.546;9.896;2023-02-10T17:51:09;-1.30;99.90
21115;DHT22;10715;48.546;9.896;2023-02-10T17:53:35;-1.40;99.90
21115;DHT22;10715;48.546;9.896;2023-02-10T17:56:01;-1.50;99.90
21115;DHT22;10715;48.546;9.896;2023-02-10T17:58:30;-1.50;99.90
21115;DHT22;10715;48.546;9.896;2023-02-10T18:00:58;-1.50;99.90